• Join FlightAware (Why Join?)
  • Login
  • US Flag 
09:30AM EDT


 

Airport Tracker/Info


-or-


 

Live Flight TrackerFlight Track Log ✈ EJA122 ✈ 06-Jun-2013 ✈ KVNY - KSTS

Flight Track Log - Related Links

Times and Time Zones

All times are in EDT time to prevent confusion due to time zone crossing. See the EJA122 flight status page for this flight to view local times or setup timezone preferences in your user account.

Time Position Orientation Groundspeed Altitude Reporting Facility
EDT Latitude Longitude Course Direction KTS MPH feet Rate Location/Type
07:13PM 34.1747 -118.4944 340° North 165 190 2,000  Level Los Angeles Center
07:14PM 34.1381 -118.5303 219° Southwest 175 201 3,800 1,920 Climbing Los Angeles Center
07:15PM 34.1467 -118.5942 279° West 190 219 6,000 2,100 Climbing Los Angeles Center
07:17PM 34.2061 -118.6389 328° Northwest 239 275 8,200 1,560 Climbing Los Angeles Center
07:18PM 34.2800 -118.6683 342° North 277 319 9,300 1,080 Climbing Los Angeles Center
07:19PM 34.5716 -118.7411 340° North  Level FlightAware Approximate
07:19PM 34.3717 -118.7011 344° North 338 389 10,500  Level Los Angeles Center
07:20PM 34.4675 -118.7358 343° North 358 412 12,100 1,560 Climbing Los Angeles Center
07:21PM 34.5664 -118.7708 344° North 367 422 13,800 1,740 Climbing Los Angeles Center
07:22PM 34.6833 -118.8181 342° North 367 422 15,700 1,740 Climbing Los Angeles Center
07:23PM 34.7803 -118.8536 343° North 365 420 17,400 1,620 Climbing Los Angeles Center
07:24PM 34.8669 -118.9136 330° Northwest 362 417 19,100 1,560 Climbing Los Angeles Center
07:25PM 34.9508 -119.0019 319° Northwest 360 414 20,700 1,260 Climbing Los Angeles Center
07:26PM 35.0100 -119.0683 317° Northwest 363 418 21,800 1,260 Climbing Los Angeles Center
07:27PM 35.1008 -119.1675 318° Northwest 366 421 23,400 1,320 Climbing Los Angeles Center
07:28PM 35.1761 -119.2506 318° Northwest 365 420 24,600 1,140 Climbing Los Angeles Center
07:29PM 35.2519 -119.3347 318° Northwest 367 422 25,800 660 Climbing Los Angeles Center
07:30PM 35.3294 -119.4206 318° Northwest 374 430 26,000 60 Climbing Los Angeles Center
07:31PM 35.4297 -119.5339 317° Northwest 401 461 26,000  Level Los Angeles Center
07:32PM 35.5172 -119.6306 318° Northwest 418 481 26,000  Level Los Angeles Center
07:32PM 35.5314 -119.6483 314° West 421 484 26,000  Level Oakland Center
07:33PM 35.6400 -119.7714 317° Northwest 441 507 26,000  Level Oakland Center
07:34PM 35.6997 -119.8381 318° Northwest 450 518 26,000  Level Los Angeles Center
07:34PM 35.7347 -119.8769 318° Northwest 459 528 26,000  Level Oakland Center
07:35PM 35.8289 -119.9853 317° Northwest 466 536 26,000  Level Oakland Center
07:36PM 35.9253 -120.0928 318° Northwest 470 541 26,000  Level Oakland Center
07:37PM 36.0203 -120.2025 317° Northwest 471 542 26,000  Level Oakland Center
07:38PM 36.1161 -120.3125 317° Northwest 472 543 26,000  Level Oakland Center
07:40PM 36.2314 -120.4447 317° Northwest 472 543 26,000  Level Oakland Center
07:41PM 36.3269 -120.5558 317° Northwest 472 543 26,000  Level Oakland Center
07:42PM 36.4225 -120.6667 317° Northwest 472 543 26,000  Level Oakland Center
07:43PM 36.5169 -120.7767 317° Northwest 469 540 26,000  Level Oakland Center
07:44PM 36.6117 -120.8861 317° Northwest 464 534 26,000  Level Oakland Center
07:45PM 36.7050 -120.9939 317° Northwest 458 527 26,000  Level Oakland Center
07:46PM 36.7981 -121.1008 317° Northwest 456 525 26,000 -540 Level Oakland Center
07:47PM 36.9033 -121.2319 315° West 460 529 24,900 -1,320 Descending Oakland Center
07:48PM 36.9978 -121.3433 317° Northwest 466 536 23,300 -1,620 Descending Oakland Center
07:49PM 37.0944 -121.4581 317° Northwest 444 511 21,700 -1,620 Descending Oakland Center
07:50PM 37.1819 -121.5628 316° Northwest 435 501 20,100 -840 Descending Oakland Center
07:51PM 37.2669 -121.6656 316° Northwest 424 488 20,000 -60 Descending Oakland Center
07:52PM 37.3561 -121.7731 316° Northwest 440 506 20,000  Level Oakland Center
07:52PM 37.4000 -121.8167 322° Northwest 443 510 20,000 -1,380 Level Northern Cal TRACON
07:53PM 37.4833 -121.9333 312° West 431 496 18,100 -1,980 Descending Northern Cal TRACON
07:54PM 37.5667 -122.0333 316° Northwest 414 476 16,100 -1,980 Descending Northern Cal TRACON
07:56PM 37.7017 -122.1933 317° Northwest 405 466 12,800 -1,500 Descending Oakland Center
07:57PM 37.7778 -122.2914 314° West 395 455 12,000 -1,020 Descending Oakland Center
07:58PM 37.8528 -122.3869 315° West 388 447 10,800 -1,020 Descending Oakland Center
07:59PM 37.9233 -122.4758 315° West 371 427 10,000 -480 Descending Oakland Center
08:00PM 38.0094 -122.5756 318° Northwest 364 419 9,900 -900 Descending Oakland Center
08:01PM 38.0900 -122.6147 339° North 325 374 8,200 -1,920 Descending Oakland Center
08:02PM 38.1650 -122.6500 340° North 297 342 6,000 -1,860 Descending Oakland Center
08:03PM 38.2358 -122.6706 347° North 269 310 4,500 -780 Descending Oakland Center
08:04PM 38.3058 -122.6836 352° North 260 299 4,500 -240 Level Oakland Center
08:05PM 38.3692 -122.7058 345° North 247 284 4,100 -900 Descending Oakland Center
08:06PM 38.4211 -122.7322 338° Northwest 218 251 2,700 -1,200 Descending Oakland Center
08:07PM 38.4778 -122.7603 339° North 215 247 1,700 -540 Descending Oakland Center
08:08PM 38.5339 -122.7878 339° North 193 222 1,700 -480 Level Oakland Center
08:09PM 38.5475 -122.8236 296° West 167 192 800 -840 Descending Oakland Center
08:10PM 38.5147 -122.8133 166° South 141 162 100 -720 Descending Oakland Center